< < Back
Terminal Aerodrome Forecast


Current Version              Previous Versions:   1  2  3  4  5  6  7  8  9  

Terminal Aerodrome Forecast

952
FTUS42 KFFC 230500
TAFATL
TAF
KATL 230522Z 2306/2412 28004KT P6SM FEW250
     FM230800 30004KT P6SM FEW012
     FM231300 33008KT P6SM SKC
     FM240700 02004KT P6SM SKC
     FM241000 06005KT P6SM SKC=



Latest METAR

306
SAUS70 KWBC 231300 RRE
MTRATL
METAR KATL 231252Z 32009KT 10SM CLR 15/08 A2995 RMK AO2 SLP137
T01500083


USA.gov is the U.S. government's official web portal to all federal, state and local government web resources and services.